Time;durP1;ratioP1;P1;durP2;ratioP2;P2;SDS_P1;SDS_P2;PMS_P1;PMS_P2;Temp;Humidity;BMP_temperature;BMP_pressure;BME280_temperature;BME280_humidity;BME280_pressure;Samples;Min_cycle;Max_cycle;Signal;HPM_P1;HPM_P2
2022/03/22 00:02:18;;;;;;;14.43;13.03;;;8.50;30.40;;;;;;20365;6881;338224;-72
2022/03/22 00:04:44;;;;;;;13.90;12.70;;;8.60;30.90;;;;;;20381;6881;284725;-72
2022/03/22 00:07:10;;;;;;;13.83;12.70;;;8.90;30.50;;;;;;20403;6881;308220;-72
2022/03/22 00:09:36;;;;;;;14.43;13.23;;;9.10;30.00;;;;;;20369;6881;308997;-72
2022/03/22 00:12:01;;;;;;;13.88;12.57;;;9.30;30.20;;;;;;20397;6881;283180;-73
2022/03/22 00:14:26;;;;;;;13.85;12.45;;;9.40;29.70;;;;;;20611;6881;124601;-74
2022/03/22 00:16:53;;;;;;;13.60;12.23;;;9.10;29.80;;;;;;20618;6881;117718;-73
2022/03/22 00:19:19;;;;;;;13.07;11.73;;;8.70;30.00;;;;;;20617;6881;117932;-73
2022/03/22 00:21:46;;;;;;;12.70;11.37;;;8.20;31.00;;;;;;20585;6879;118309;-75
2022/03/22 00:24:11;;;;;;;14.33;12.47;;;8.10;30.90;;;;;;20589;6880;117532;-73
2022/03/22 00:26:37;;;;;;;13.85;11.88;;;8.00;31.40;;;;;;20611;6881;118430;-73
2022/03/22 00:29:03;;;;;;;12.97;11.77;;;7.80;31.40;;;;;;20607;6881;121740;-73
2022/03/22 00:31:29;;;;;;;14.55;13.10;;;7.70;31.50;;;;;;20371;6881;308207;-73
2022/03/22 00:33:54;;;;;;;14.73;12.75;;;7.90;31.80;;;;;;20476;6880;119058;-73
2022/03/22 00:36:20;;;;;;;13.67;11.73;;;8.00;31.60;;;;;;20564;6881;117138;-72
2022/03/22 00:38:45;;;;;;;13.47;12.07;;;7.80;31.60;;;;;;20552;6881;118642;-72
2022/03/22 00:41:13;;;;;;;15.17;13.80;;;7.70;31.80;;;;;;20372;6881;297037;-72
2022/03/22 00:43:36;;;;;;;13.77;12.57;;;7.90;32.40;;;;;;20561;6881;123821;-72
2022/03/22 00:46:02;;;;;;;13.53;12.43;;;7.90;32.20;;;;;;20585;6881;117675;-72
2022/03/22 00:48:27;;;;;;;14.35;13.10;;;7.80;32.50;;;;;;20388;6881;338086;-72
2022/03/22 00:50:53;;;;;;;14.27;12.87;;;8.00;33.60;;;;;;20590;6881;119527;-72
2022/03/22 00:53:20;;;;;;;13.55;12.30;;;8.10;33.30;;;;;;20595;6881;118334;-73
2022/03/22 00:55:45;;;;;;;15.68;13.60;;;7.90;33.20;;;;;;20389;6881;279150;-72
2022/03/22 00:58:11;;;;;;;13.53;11.67;;;8.20;32.90;;;;;;20597;6881;118090;-72
2022/03/22 01:00:37;;;;;;;13.88;12.57;;;8.00;32.90;;;;;;20620;6881;118543;-72
2022/03/22 01:03:03;;;;;;;15.63;12.70;;;7.90;32.80;;;;;;20605;6881;117700;-72
2022/03/22 01:05:28;;;;;;;13.10;11.70;;;7.70;32.90;;;;;;20573;6881;121581;-74
2022/03/22 01:07:54;;;;;;;12.87;11.57;;;7.50;33.10;;;;;;20597;6881;117729;-73
2022/03/22 01:10:20;;;;;;;14.52;13.10;;;7.40;33.50;;;;;;20362;6881;308618;-73
2022/03/22 01:12:45;;;;;;;14.43;13.18;;;7.70;33.70;;;;;;20383;6881;299315;-73
2022/03/22 01:15:18;;;;;;;12.90;11.60;;;8.10;32.20;;;;;;20588;6881;117801;-73
2022/03/22 01:17:42;;;;;;;13.67;12.33;;;8.00;32.00;;;;;;20569;6881;118187;-72
2022/03/22 01:20:10;;;;;;;14.98;13.57;;;7.80;32.40;;;;;;20363;6881;284939;-72
2022/03/22 01:22:36;;;;;;;13.70;12.30;;;7.90;32.20;;;;;;20588;6881;117611;-73
2022/03/22 01:25:01;;;;;;;13.13;11.90;;;7.80;32.20;;;;;;20589;6881;117826;-73
2022/03/22 01:27:26;;;;;;;13.00;11.70;;;7.60;32.80;;;;;;20572;6881;127769;-73
2022/03/22 01:29:51;;;;;;;13.07;11.43;;;7.50;33.40;;;;;;20597;6881;119468;-76
2022/03/22 01:32:18;;;;;;;12.52;11.50;;;7.20;33.70;;;;;;20604;6879;117558;-78
2022/03/22 01:34:43;;;;;;;11.97;10.67;;;7.20;33.70;;;;;;20603;6880;117537;-74
2022/03/22 01:37:11;;;;;;;12.07;10.88;;;7.10;34.00;;;;;;20601;6880;122197;-73
2022/03/22 01:39:37;;;;;;;13.48;12.35;;;7.10;34.00;;;;;;20388;6881;308522;-73
2022/03/22 01:42:04;;;;;;;13.13;12.03;;;7.30;34.10;;;;;;20400;6881;324121;-73
2022/03/22 01:44:30;;;;;;;11.67;10.67;;;7.80;33.40;;;;;;20603;6881;120107;-73
2022/03/22 01:46:56;;;;;;;13.27;12.05;;;7.70;33.20;;;;;;20401;6881;279476;-73
2022/03/22 01:49:22;;;;;;;13.03;11.73;;;7.90;33.10;;;;;;20373;6881;312541;-76
2022/03/22 01:51:48;;;;;;;12.25;11.12;;;8.10;33.20;;;;;;20613;6881;118261;-73
2022/03/22 01:54:13;;;;;;;12.50;11.50;;;8.00;33.10;;;;;;20394;6881;314855;-72
2022/03/22 01:56:39;;;;;;;10.80;9.90;;;7.80;33.50;;;;;;20608;6881;117554;-72
2022/03/22 01:59:04;;;;;;;12.97;11.83;;;7.80;33.50;;;;;;20389;6881;313578;-72
2022/03/22 02:07:01;;;;;;;13.20;11.17;;;7.40;34.30;;;;;;20592;6881;120668;-72
2022/03/22 02:09:27;;;;;;;14.87;13.47;;;7.40;35.80;;;;;;20371;6881;296485;-72
2022/03/22 02:11:52;;;;;;;12.87;11.67;;;7.30;35.70;;;;;;20586;6881;118982;-72
2022/03/22 02:14:18;;;;;;;14.85;13.55;;;7.40;35.50;;;;;;20387;6881;309846;-72
2022/03/22 02:16:44;;;;;;;13.43;12.10;;;7.60;35.70;;;;;;20581;6881;122491;-72
2022/03/22 02:19:10;;;;;;;14.68;13.25;;;7.60;35.50;;;;;;20390;6881;335415;-72
2022/03/22 02:21:35;;;;;;;15.57;12.95;;;7.70;35.70;;;;;;20545;6881;117830;-72
2022/03/22 02:24:00;;;;;;;15.10;12.50;;;7.70;35.70;;;;;;20599;6881;124141;-73
2022/03/22 02:26:27;;;;;;;15.43;13.87;;;7.40;35.80;;;;;;20388;6881;338985;-72
2022/03/22 02:28:54;;;;;;;16.30;14.07;;;7.60;36.10;;;;;;20389;6881;319129;-73
2022/03/22 02:31:20;;;;;;;15.40;13.27;;;8.00;35.80;;;;;;20626;6881;118830;-73
2022/03/22 02:33:46;;;;;;;15.03;13.00;;;7.60;35.90;;;;;;20596;6881;117855;-73
2022/03/22 02:36:12;;;;;;;15.87;14.20;;;7.60;35.40;;;;;;20394;6881;308580;-73
2022/03/22 02:38:38;;;;;;;16.73;13.50;;;7.60;35.60;;;;;;20595;6881;118312;-75
2022/03/22 02:41:07;;;;;;;13.60;11.83;;;7.60;35.60;;;;;;20601;6881;117512;-74
2022/03/22 02:43:32;;;;;;;15.43;11.77;;;7.30;35.70;;;;;;20577;6879;146200;-72
2022/03/22 02:45:58;;;;;;;14.38;12.02;;;7.10;36.10;;;;;;20585;6880;118213;-75
2022/03/22 02:48:26;;;;;;;12.77;11.57;;;6.90;36.70;;;;;;20609;6880;117585;-73
2022/03/22 02:50:51;;;;;;;16.50;14.48;;;6.80;36.60;;;;;;20387;6881;279486;-72
2022/03/22 02:53:16;;;;;;;16.00;14.52;;;7.10;36.60;;;;;;20396;6881;337796;-72
2022/03/22 02:55:42;;;;;;;15.97;14.47;;;7.50;35.90;;;;;;20374;6881;279028;-72
2022/03/22 02:58:08;;;;;;;16.47;14.83;;;7.80;35.10;;;;;;20395;6881;312910;-72
2022/03/22 03:00:35;;;;;;;15.73;14.23;;;7.90;34.70;;;;;;20396;6881;279140;-72
2022/03/22 03:02:59;;;;;;;15.70;14.30;;;8.20;35.00;;;;;;20386;6881;313109;-72
2022/03/22 03:05:25;;;;;;;18.23;13.23;;;8.20;35.70;;;;;;20586;6881;120531;-73
2022/03/22 03:07:51;;;;;;;14.40;13.20;;;7.90;35.20;;;;;;20394;6881;309023;-72
2022/03/22 03:10:16;;;;;;;14.25;12.85;;;7.90;35.60;;;;;;20600;6881;118140;-72
2022/03/22 03:12:42;;;;;;;16.83;15.25;;;7.70;35.60;;;;;;20393;6881;342933;-72
2022/03/22 03:15:11;;;;;;;16.90;15.40;;;7.90;34.90;;;;;;20389;6881;308739;-72
2022/03/22 03:17:37;;;;;;;16.92;15.00;;;7.80;34.80;;;;;;20377;6881;314216;-72
2022/03/22 03:20:02;;;;;;;18.70;13.65;;;8.00;34.70;;;;;;20596;6881;117794;-72
2022/03/22 03:22:29;;;;;;;16.23;14.48;;;7.60;35.00;;;;;;20386;6881;308691;-72
2022/03/22 03:24:54;;;;;;;16.40;14.60;;;7.60;35.00;;;;;;20392;6881;308954;-72
2022/03/22 03:27:22;;;;;;;16.08;14.57;;;7.80;34.70;;;;;;20408;6881;286324;-72
2022/03/22 03:29:47;;;;;;;14.27;12.87;;;7.60;35.00;;;;;;20606;6881;118234;-72
2022/03/22 03:32:14;;;;;;;15.85;14.40;;;7.60;36.20;;;;;;20385;6881;306639;-72
2022/03/22 03:34:39;;;;;;;15.90;13.90;;;7.50;35.70;;;;;;20607;6881;117739;-72
2022/03/22 03:37:06;;;;;;;14.87;12.98;;;7.40;35.70;;;;;;20608;6881;119665;-72
2022/03/22 03:39:30;;;;;;;14.57;13.13;;;7.00;35.80;;;;;;20583;6881;120623;-72
2022/03/22 03:41:57;;;;;;;14.50;12.87;;;6.70;36.10;;;;;;20612;6881;117626;-72
2022/03/22 03:47:19;;;;;;;14.33;12.70;;;6.30;36.80;;;;;;20591;6881;117683;-73
2022/03/22 03:49:44;;;;;;;14.03;12.53;;;6.10;37.10;;;;;;20576;6881;122364;-72
2022/03/22 03:52:10;;;;;;;16.25;14.65;;;6.10;37.40;;;;;;20361;6881;313648;-72
2022/03/22 03:54:36;;;;;;;17.50;15.10;;;6.30;37.50;;;;;;20380;6879;279382;-72
2022/03/22 03:57:01;;;;;;;17.23;15.53;;;6.70;37.60;;;;;;20390;6880;293444;-72
2022/03/22 03:59:27;;;;;;;15.68;14.10;;;7.10;36.60;;;;;;20375;6880;332005;-73
2022/03/22 04:01:53;;;;;;;15.35;13.70;;;7.20;36.40;;;;;;20606;6881;121283;-72
2022/03/22 04:04:19;;;;;;;17.03;15.33;;;7.20;36.20;;;;;;20385;6881;281194;-72
2022/03/22 04:06:45;;;;;;;16.65;14.95;;;7.20;36.20;;;;;;20394;6881;342921;-72
2022/03/22 04:09:10;;;;;;;16.42;14.73;;;7.40;35.80;;;;;;20389;6881;312742;-72
2022/03/22 04:11:38;;;;;;;16.55;14.95;;;7.70;35.00;;;;;;20378;6881;307784;-72
2022/03/22 04:14:02;;;;;;;16.23;13.30;;;7.70;35.00;;;;;;20611;6881;118006;-72
2022/03/22 04:16:28;;;;;;;14.43;13.03;;;7.40;35.10;;;;;;20614;6881;118580;-72
2022/03/22 04:18:53;;;;;;;14.20;12.82;;;7.00;35.70;;;;;;20603;6881;117514;-72
2022/03/22 04:21:19;;;;;;;16.63;15.03;;;6.80;36.50;;;;;;20391;6881;322727;-72
2022/03/22 04:23:45;;;;;;;17.05;14.23;;;6.90;37.20;;;;;;20592;6881;119932;-72
2022/03/22 04:26:10;;;;;;;17.62;16.02;;;6.90;37.00;;;;;;20395;6881;338276;-72
2022/03/22 04:34:07;;;;;;;15.20;13.50;;;7.50;35.70;;;;;;20608;6881;117764;-72
2022/03/22 04:36:33;;;;;;;13.40;12.20;;;7.30;35.70;;;;;;20606;6881;120553;-72
2022/03/22 04:38:59;;;;;;;15.02;13.62;;;6.80;36.00;;;;;;20404;6881;309001;-72
2022/03/22 04:41:24;;;;;;;15.10;13.67;;;6.80;36.40;;;;;;20386;6881;304412;-72
2022/03/22 04:43:50;;;;;;;15.85;14.40;;;7.10;36.50;;;;;;20402;6881;311770;-73
2022/03/22 04:46:18;;;;;;;15.43;13.83;;;7.30;36.40;;;;;;20609;6881;117891;-77
2022/03/22 04:48:42;;;;;;;15.07;13.63;;;7.10;36.40;;;;;;20590;6881;117398;-71
2022/03/22 04:56:46;;;;;;;20.50;17.53;;;7.10;36.10;;;;;;20601;6881;118391;-72
2022/03/22 04:59:24;;;;;;;18.70;17.00;;;6.80;36.30;;;;;;20404;6881;279482;-72
2022/03/22 05:01:50;;;;;;;17.35;15.85;;;7.00;35.30;;;;;;20361;6881;337267;-70
2022/03/22 05:04:13;;;;;;;15.60;14.20;;;7.00;35.30;;;;;;20385;6881;309061;-69
2022/03/22 05:06:39;;;;;;;15.47;14.13;;;7.10;35.40;;;;;;20398;6879;295401;-69
2022/03/22 05:09:04;;;;;;;16.80;15.05;;;7.20;34.90;;;;;;20403;6880;309031;-69
2022/03/22 05:11:33;;;;;;;14.83;13.57;;;7.20;34.70;;;;;;20377;6880;283454;-69
2022/03/22 05:13:59;;;;;;;15.68;14.07;;;7.20;35.00;;;;;;20404;6881;341904;-69
2022/03/22 05:16:25;;;;;;;14.90;13.47;;;7.10;35.70;;;;;;20403;6881;278631;-69
2022/03/22 05:18:50;;;;;;;14.70;13.40;;;7.10;35.70;;;;;;20400;6881;309645;-69
2022/03/22 05:21:17;;;;;;;14.75;11.55;;;7.10;35.60;;;;;;20611;6881;117638;-69
2022/03/22 05:23:42;;;;;;;14.03;11.87;;;6.80;35.90;;;;;;20585;6881;118453;-69
2022/03/22 05:26:07;;;;;;;15.20;13.80;;;6.40;36.40;;;;;;20407;6881;283635;-69
2022/03/22 05:28:33;;;;;;;15.18;13.88;;;6.40;36.80;;;;;;20397;6881;344653;-68
2022/03/22 05:30:59;;;;;;;14.45;13.05;;;6.50;36.40;;;;;;20612;6881;118043;-67
2022/03/22 05:33:26;;;;;;;14.27;12.83;;;6.50;36.40;;;;;;20594;6881;123961;-68
2022/03/22 05:35:51;;;;;;;13.83;12.63;;;6.20;36.70;;;;;;20401;6881;305896;-69
2022/03/22 05:38:18;;;;;;;13.75;12.37;;;6.10;37.80;;;;;;20616;6881;117782;-67
2022/03/22 05:40:43;;;;;;;15.27;13.87;;;6.10;37.30;;;;;;20398;6881;305424;-67
2022/03/22 05:43:10;;;;;;;14.75;13.45;;;6.50;36.60;;;;;;20400;6881;309047;-68
2022/03/22 05:45:36;;;;;;;13.63;12.40;;;6.50;36.60;;;;;;20594;6881;117572;-68
2022/03/22 05:48:01;;;;;;;13.32;12.02;;;6.00;37.00;;;;;;20617;6881;118265;-69
2022/03/22 05:50:27;;;;;;;15.53;11.73;;;6.00;37.00;;;;;;20619;6881;117587;-68
2022/03/22 05:52:53;;;;;;;13.27;11.95;;;5.50;38.20;;;;;;20612;6881;117623;-72
2022/03/22 05:55:20;;;;;;;13.43;12.10;;;5.50;38.10;;;;;;20615;6881;117692;-72
2022/03/22 05:57:46;;;;;;;13.97;12.47;;;5.50;38.70;;;;;;20591;6881;118095;-73
2022/03/22 06:00:12;;;;;;;15.23;13.83;;;5.90;38.90;;;;;;20403;6881;308194;-72
2022/03/22 06:02:38;;;;;;;16.37;14.32;;;5.80;38.80;;;;;;20392;6881;309041;-72
2022/03/22 06:05:04;;;;;;;15.40;14.00;;;6.40;38.20;;;;;;20396;6881;309088;-72
2022/03/22 06:07:29;;;;;;;15.53;14.23;;;6.80;37.30;;;;;;20357;6881;344111;-73
2022/03/22 06:09:55;;;;;;;14.50;13.10;;;7.10;36.80;;;;;;20607;6881;121570;-73
2022/03/22 06:12:20;;;;;;;17.23;14.53;;;7.10;36.90;;;;;;20393;6881;354995;-73
2022/03/22 06:14:47;;;;;;;15.85;14.27;;;7.10;36.70;;;;;;20389;6881;337517;-74
2022/03/22 06:17:13;;;;;;;14.47;12.93;;;7.30;36.40;;;;;;20614;6881;118197;-73
2022/03/22 06:19:38;;;;;;;13.70;12.40;;;7.30;36.60;;;;;;20586;6879;141700;-73
2022/03/22 06:22:04;;;;;;;16.10;14.50;;;7.10;37.10;;;;;;20393;6880;338618;-71
2022/03/22 06:24:29;;;;;;;14.17;12.77;;;7.10;36.90;;;;;;20611;6881;118114;-77
2022/03/22 06:26:55;;;;;;;15.17;13.80;;;7.10;37.00;;;;;;20382;6881;343920;-73
2022/03/22 06:29:20;;;;;;;15.50;14.00;;;7.30;36.90;;;;;;20407;6881;280962;-73
2022/03/22 06:31:49;;;;;;;15.50;12.50;;;7.60;36.50;;;;;;20615;6881;118995;-75
2022/03/22 06:34:14;;;;;;;14.17;12.73;;;7.30;36.80;;;;;;20616;6881;117668;-73
2022/03/22 06:36:40;;;;;;;13.63;12.13;;;7.40;36.90;;;;;;20611;6881;117631;-70
2022/03/22 06:39:05;;;;;;;14.07;12.23;;;7.20;37.30;;;;;;20615;6881;118042;-70
2022/03/22 06:41:31;;;;;;;15.30;11.90;;;7.10;37.70;;;;;;20591;6881;117736;-70
2022/03/22 06:43:57;;;;;;;15.67;14.17;;;7.30;37.80;;;;;;20403;6881;308620;-70
2022/03/22 06:46:23;;;;;;;14.33;12.83;;;7.30;37.80;;;;;;20608;6881;117974;-66
2022/03/22 06:48:48;;;;;;;16.30;14.57;;;7.40;37.60;;;;;;20390;6881;308524;-71
2022/03/22 06:51:14;;;;;;;14.03;12.73;;;7.60;37.40;;;;;;20615;6881;118246;-71
2022/03/22 06:53:40;;;;;;;16.53;14.77;;;7.70;37.50;;;;;;20380;6881;307071;-71
2022/03/22 06:56:05;;;;;;;15.67;14.20;;;7.90;37.30;;;;;;20398;6881;308231;-71
2022/03/22 06:58:32;;;;;;;14.80;13.30;;;8.40;36.60;;;;;;20621;6881;117621;-71
2022/03/22 07:00:58;;;;;;;14.83;13.17;;;8.40;36.60;;;;;;20610;6881;117695;-70
2022/03/22 07:03:23;;;;;;;15.60;12.87;;;8.20;36.90;;;;;;20596;6881;118268;-70
2022/03/22 07:05:48;;;;;;;15.52;14.02;;;8.10;37.40;;;;;;20401;6881;338132;-71
2022/03/22 07:08:14;;;;;;;17.17;14.52;;;8.40;37.20;;;;;;20402;6881;308509;-72
2022/03/22 07:10:39;;;;;;;14.67;13.13;;;8.80;36.70;;;;;;20608;6881;117623;-72
2022/03/22 07:13:05;;;;;;;10.55;9.48;;;8.90;36.60;;;;;;20615;6881;117651;-69
2022/03/22 07:15:31;;;;;;;12.07;10.87;;;8.80;37.30;;;;;;20592;6881;117912;-71
2022/03/22 07:18:00;;;;;;;12.40;11.27;;;9.30;38.80;;;;;;20612;6881;117766;-71
2022/03/22 07:20:25;;;;;;;13.03;11.63;;;9.30;38.30;;;;;;20611;6881;117975;-70
2022/03/22 07:22:51;;;;;;;12.95;11.68;;;9.60;38.00;;;;;;20613;6881;118017;-71
2022/03/22 07:25:17;;;;;;;13.50;12.30;;;9.90;37.60;;;;;;20402;6881;310182;-71
2022/03/22 07:27:42;;;;;;;13.83;12.53;;;10.40;34.90;;;;;;20374;6881;313123;-72
2022/03/22 07:30:11;;;;;;;13.48;11.75;;;11.50;34.00;;;;;;20613;6879;125737;-72
2022/03/22 07:32:35;;;;;;;13.77;12.57;;;11.90;32.40;;;;;;20391;6880;283995;-70
2022/03/22 07:35:01;;;;;;;13.50;12.20;;;11.90;32.40;;;;;;20613;6880;118259;-72
2022/03/22 07:37:26;;;;;;;14.50;13.10;;;12.10;32.50;;;;;;20382;6881;313658;-73
2022/03/22 07:39:52;;;;;;;14.07;12.65;;;12.50;31.60;;;;;;20607;6881;118328;-73
2022/03/22 07:42:17;;;;;;;13.03;11.60;;;12.60;31.60;;;;;;20614;6881;123065;-74
2022/03/22 07:44:45;;;;;;;12.70;11.38;;;12.60;32.00;;;;;;20611;6881;117882;-73
2022/03/22 07:47:09;;;;;;;13.17;11.80;;;12.60;31.90;;;;;;20608;6881;118222;-73
2022/03/22 07:55:10;;;;;;;13.60;12.10;;;13.10;30.90;;;;;;20613;6881;121660;-73
2022/03/22 07:57:31;;;;;;;13.03;11.67;;;13.10;31.10;;;;;;20586;6881;128032;-72
2022/03/22 07:59:57;;;;;;;14.38;13.00;;;13.10;31.20;;;;;;20405;6881;309024;-72
2022/03/22 08:02:23;;;;;;;15.27;13.73;;;13.40;30.20;;;;;;20396;6881;308651;-72
2022/03/22 08:04:49;;;;;;;13.05;12.05;;;13.90;29.80;;;;;;20404;6881;314554;-73
2022/03/22 08:07:14;;;;;;;13.93;12.73;;;14.40;29.30;;;;;;20398;6881;338190;-72
2022/03/22 08:09:39;;;;;;;13.10;11.77;;;14.80;28.90;;;;;;20599;6881;117857;-72
2022/03/22 08:12:05;;;;;;;14.02;12.82;;;14.80;29.10;;;;;;20400;6881;343312;-73
2022/03/22 08:14:31;;;;;;;12.87;11.67;;;15.00;28.80;;;;;;20610;6881;118120;-72
2022/03/22 08:16:56;;;;;;;12.33;11.27;;;15.00;29.10;;;;;;20613;6881;121571;-71
2022/03/22 08:19:24;;;;;;;12.90;11.57;;;14.80;29.60;;;;;;20590;6881;118009;-71
2022/03/22 08:21:49;;;;;;;13.85;12.65;;;15.00;28.80;;;;;;20400;6881;309086;-72
2022/03/22 08:24:15;;;;;;;17.97;14.07;;;15.00;28.80;;;;;;20396;6881;308668;-71
2022/03/22 08:26:40;;;;;;;15.90;13.30;;;15.40;28.50;;;;;;20613;6881;117693;-71
2022/03/22 08:29:06;;;;;;;14.93;13.47;;;15.40;28.30;;;;;;20614;6881;121724;-71
2022/03/22 08:31:31;;;;;;;15.13;12.63;;;15.10;28.50;;;;;;20585;6881;123752;-71
2022/03/22 08:33:57;;;;;;;15.50;14.20;;;14.80;28.80;;;;;;20400;6881;313225;-71
2022/03/22 08:36:22;;;;;;;14.10;12.82;;;14.90;28.40;;;;;;20613;6881;118119;-71
2022/03/22 08:38:48;;;;;;;13.63;12.27;;;14.90;28.50;;;;;;20609;6881;118366;-71
2022/03/22 08:41:13;;;;;;;15.15;13.80;;;14.80;28.70;;;;;;20401;6879;283276;-71
2022/03/22 08:43:40;;;;;;;14.77;13.37;;;15.00;27.90;;;;;;20595;6880;119286;-71
2022/03/22 08:46:06;;;;;;;14.87;13.33;;;15.00;27.90;;;;;;20617;6880;118341;-71
2022/03/22 08:48:31;;;;;;;15.40;13.88;;;14.90;28.20;;;;;;20395;6881;307711;-71
2022/03/22 08:50:57;;;;;;;13.90;12.50;;;15.10;27.10;;;;;;20621;6881;118689;-71
2022/03/22 08:53:23;;;;;;;13.60;12.23;;;15.30;27.50;;;;;;20596;6881;118671;-72
2022/03/22 08:55:47;;;;;;;13.83;12.67;;;15.20;27.70;;;;;;20613;6881;118021;-71
2022/03/22 08:58:13;;;;;;;15.33;12.57;;;15.20;27.80;;;;;;20609;6881;117774;-71
2022/03/22 09:00:39;;;;;;;14.70;13.30;;;15.20;27.80;;;;;;20403;6881;284043;-71
2022/03/22 09:03:04;;;;;;;15.43;14.10;;;15.40;27.10;;;;;;20398;6881;308153;-71
2022/03/22 09:08:15;;;;;;;15.82;14.40;;;16.30;25.70;;;;;;20404;6881;338646;-71
2022/03/22 09:10:41;;;;;;;15.03;13.73;;;16.60;25.60;;;;;;20401;6881;336336;-71
2022/03/22 09:13:07;;;;;;;14.57;13.07;;;16.80;24.80;;;;;;20316;6881;124497;-71
2022/03/22 09:15:35;;;;;;;15.73;14.13;;;16.70;25.40;;;;;;20297;6881;302891;-71
2022/03/22 09:17:57;;;;;;;14.47;13.23;;;16.80;25.50;;;;;;20599;6881;118119;-71
2022/03/22 09:20:23;;;;;;;14.68;13.50;;;16.80;25.90;;;;;;20400;6881;308456;-71
2022/03/22 09:22:49;;;;;;;14.00;12.70;;;16.90;25.10;;;;;;20610;6881;118045;-71
2022/03/22 09:25:14;;;;;;;14.77;13.60;;;16.90;25.60;;;;;;20395;6881;308630;-71
2022/03/22 09:27:41;;;;;;;14.68;13.27;;;17.00;25.10;;;;;;20599;6881;124404;-71
2022/03/22 09:30:05;;;;;;;16.07;14.63;;;17.10;25.40;;;;;;20399;6881;284050;-71
2022/03/22 09:32:31;;;;;;;15.00;13.60;;;17.30;25.40;;;;;;20612;6881;118783;-71
2022/03/22 09:34:59;;;;;;;16.33;14.80;;;17.30;25.40;;;;;;20407;6881;308589;-71
2022/03/22 09:37:22;;;;;;;16.23;14.63;;;17.40;24.70;;;;;;20374;6881;316419;-71
2022/03/22 09:39:48;;;;;;;16.17;14.83;;;17.70;24.50;;;;;;20408;6881;308687;-70
2022/03/22 09:42:13;;;;;;;15.35;13.95;;;17.90;24.30;;;;;;20617;6881;118980;-71
2022/03/22 09:44:39;;;;;;;15.95;14.43;;;18.00;24.80;;;;;;20399;6881;314575;-71
2022/03/22 09:47:05;;;;;;;15.63;13.87;;;18.00;25.10;;;;;;20613;6881;118651;-71
2022/03/22 09:49:30;;;;;;;15.43;13.95;;;18.00;25.10;;;;;;20598;6881;121724;-72
2022/03/22 09:51:56;;;;;;;14.37;13.10;;;17.80;25.00;;;;;;20612;6881;118028;-72
2022/03/22 09:54:22;;;;;;;16.87;15.37;;;17.80;23.80;;;;;;20400;6879;313065;-72
2022/03/22 09:56:48;;;;;;;17.00;15.37;;;17.80;23.80;;;;;;20398;6880;309182;-72
2022/03/22 09:59:14;;;;;;;16.57;15.17;;;18.20;24.30;;;;;;20611;6881;117806;-72
2022/03/22 10:01:39;;;;;;;16.47;15.07;;;18.20;24.20;;;;;;20378;6881;309984;-72
2022/03/22 10:04:05;;;;;;;17.40;15.90;;;18.30;23.60;;;;;;20404;6881;338509;-72
2022/03/22 10:06:30;;;;;;;18.10;16.70;;;18.50;23.90;;;;;;20391;6881;308517;-72
2022/03/22 10:08:55;;;;;;;17.12;15.63;;;18.70;23.20;;;;;;20402;6881;338573;-72
2022/03/22 10:11:21;;;;;;;16.17;14.77;;;18.90;23.60;;;;;;20610;6881;117875;-73
2022/03/22 10:13:51;;;;;;;16.00;14.40;;;18.60;24.00;;;;;;20596;6881;124684;-72
2022/03/22 10:16:18;;;;;;;17.57;15.97;;;18.60;24.00;;;;;;20396;6881;309088;-73
2022/03/22 10:18:43;;;;;;;16.87;15.03;;;18.70;23.20;;;;;;20612;6881;117859;-72
2022/03/22 10:21:09;;;;;;;16.90;15.23;;;18.60;23.60;;;;;;20615;6881;118330;-72
2022/03/22 10:23:34;;;;;;;16.03;14.43;;;18.40;24.00;;;;;;20599;6881;117856;-72
2022/03/22 10:26:06;;;;;;;16.30;14.70;;;18.30;24.40;;;;;;20569;6881;117888;-72
2022/03/22 10:28:32;;;;;;;16.23;14.53;;;18.20;24.40;;;;;;20612;6881;117857;-72
2022/03/22 10:30:58;;;;;;;17.42;15.93;;;18.40;24.30;;;;;;20396;6881;279400;-72
2022/03/22 10:33:24;;;;;;;16.20;14.67;;;18.40;24.30;;;;;;20584;6881;118142;-73
2022/03/22 10:35:50;;;;;;;16.13;14.83;;;18.60;24.20;;;;;;20608;6881;124948;-72
2022/03/22 10:38:18;;;;;;;18.67;16.98;;;18.60;24.40;;;;;;20395;6881;338344;-74
2022/03/22 10:40:45;;;;;;;17.02;15.63;;;18.80;23.40;;;;;;20393;6881;343103;-75
2022/03/22 10:43:10;;;;;;;17.73;16.13;;;19.20;23.80;;;;;;20399;6881;278283;-75
2022/03/22 10:45:49;;;;;;;18.75;17.15;;;19.50;24.40;;;;;;20378;6881;341509;-74
2022/03/22 10:48:26;;;;;;;19.47;16.23;;;19.80;24.40;;;;;;20608;6881;117780;-75
2022/03/22 10:50:49;;;;;;;17.67;15.90;;;19.80;24.10;;;;;;20609;6881;118185;-77
2022/03/22 10:53:18;;;;;;;18.63;16.90;;;19.60;24.00;;;;;;20397;6881;341560;-78
2022/03/22 10:55:43;;;;;;;17.30;15.50;;;19.70;23.20;;;;;;20588;6881;119336;-77
2022/03/22 10:58:09;;;;;;;17.00;15.60;;;19.80;23.00;;;;;;20401;6881;288691;-78
2022/03/22 11:00:36;;;;;;;18.52;16.85;;;20.00;22.80;;;;;;20388;6881;308385;-80
2022/03/22 11:03:02;;;;;;;17.47;15.97;;;20.00;23.50;;;;;;20613;6881;118031;-77
2022/03/22 11:05:28;;;;;;;18.50;16.70;;;19.90;23.30;;;;;;20374;6879;308271;-76
2022/03/22 11:07:53;;;;;;;17.57;15.97;;;20.00;22.60;;;;;;20614;6880;118226;-77
2022/03/22 11:10:29;;;;;;;17.70;16.07;;;19.90;22.80;;;;;;20617;6880;117728;-76
2022/03/22 11:12:51;;;;;;;18.00;16.30;;;19.60;22.40;;;;;;20402;6881;307658;-73
2022/03/22 11:15:17;;;;;;;17.10;15.60;;;19.60;22.10;;;;;;20600;6881;118380;-75
2022/03/22 11:17:42;;;;;;;17.77;16.13;;;19.60;22.70;;;;;;20390;6881;279226;-73
2022/03/22 11:20:08;;;;;;;18.42;16.50;;;19.70;22.10;;;;;;20393;6881;308395;-75
2022/03/22 11:22:34;;;;;;;17.80;16.10;;;20.00;22.60;;;;;;20606;6881;118171;-74
2022/03/22 11:25:10;;;;;;;19.30;17.30;;;20.00;22.30;;;;;;20398;6881;279877;-74
2022/03/22 11:27:38;;;;;;;17.33;15.60;;;19.90;22.80;;;;;;20592;6881;123592;-77
2022/03/22 11:30:03;;;;;;;18.47;16.57;;;19.90;22.80;;;;;;20387;6881;308083;-77
2022/03/22 11:35:14;;;;;;;16.07;14.57;;;19.90;22.60;;;;;;20611;6881;117663;-74
2022/03/22 11:37:40;;;;;;;17.73;16.10;;;19.80;22.70;;;;;;20358;6881;326519;-74
2022/03/22 11:42:53;;;;;;;16.77;15.30;;;19.80;22.40;;;;;;20397;6881;297533;-74
2022/03/22 11:45:19;;;;;;;17.58;16.12;;;19.90;22.30;;;;;;20362;6881;337044;-74
2022/03/22 11:47:49;;;;;;;17.73;15.93;;;20.20;22.60;;;;;;20598;6881;123610;-74
2022/03/22 11:50:13;;;;;;;17.33;15.60;;;20.20;22.60;;;;;;20593;6881;118141;-74
2022/03/22 11:52:39;;;;;;;18.80;16.83;;;20.10;23.40;;;;;;20395;6881;282972;-74
2022/03/22 11:55:09;;;;;;;15.77;14.43;;;20.10;23.30;;;;;;20601;6881;119431;-72
2022/03/22 11:57:48;;;;;;;16.00;14.50;;;20.10;22.90;;;;;;20594;6881;118523;-69
2022/03/22 12:00:17;;;;;;;17.10;15.47;;;20.00;22.80;;;;;;20388;6881;278519;-77
2022/03/22 12:02:52;;;;;;;17.07;15.67;;;20.00;22.40;;;;;;20403;6881;279432;-75
2022/03/22 12:05:17;;;;;;;16.40;14.98;;;20.30;21.80;;;;;;20399;6881;338522;-80
2022/03/22 12:07:41;;;;;;;17.10;14.63;;;20.50;21.60;;;;;;20581;6881;118191;-76
2022/03/22 12:10:06;;;;;;;17.10;15.60;;;20.40;21.90;;;;;;20404;6881;308624;-73
2022/03/22 12:12:32;;;;;;;16.98;15.48;;;20.40;21.50;;;;;;20401;6881;278869;-80
2022/03/22 12:15:00;;;;;;;17.50;15.90;;;20.60;21.60;;;;;;20377;6881;311236;-72
2022/03/22 12:17:23;;;;;;;22.10;15.87;;;20.60;21.90;;;;;;20561;6879;124078;-72
2022/03/22 12:19:49;;;;;;;17.47;15.87;;;20.60;21.80;;;;;;20594;6880;118473;-74
2022/03/22 12:22:15;;;;;;;15.17;13.77;;;20.30;21.90;;;;;;20611;6881;118449;-76
2022/03/22 12:24:40;;;;;;;17.57;16.07;;;20.10;22.30;;;;;;20405;6881;282515;-77
2022/03/22 12:27:06;;;;;;;16.97;15.37;;;20.20;23.10;;;;;;20616;6881;117751;-78
2022/03/22 12:29:32;;;;;;;15.53;14.13;;;20.20;22.70;;;;;;20585;6881;119615;-84
2022/03/22 12:32:06;;;;;;;13.77;12.63;;;20.00;22.40;;;;;;20600;6881;118463;-83
2022/03/22 12:34:24;;;;;;;15.07;13.87;;;19.90;22.30;;;;;;20381;6881;308624;-76
2022/03/22 12:36:50;;;;;;;15.03;13.83;;;20.00;21.60;;;;;;20403;6881;305103;-78
2022/03/22 12:39:16;;;;;;;12.90;11.80;;;20.30;20.50;;;;;;20615;6881;127045;-76
2022/03/22 12:41:43;;;;;;;14.98;13.57;;;20.30;20.70;;;;;;20590;6881;119859;-76
2022/03/22 12:44:08;;;;;;;16.83;15.13;;;20.10;20.90;;;;;;20394;6881;309642;-76
2022/03/22 12:46:35;;;;;;;15.80;14.37;;;20.10;20.60;;;;;;20620;6881;117845;-76
2022/03/22 12:49:00;;;;;;;15.70;14.07;;;19.90;21.20;;;;;;20614;6881;118633;-76
2022/03/22 12:51:27;;;;;;;12.87;11.67;;;19.90;21.20;;;;;;20595;6881;117932;-76